Time;durP1;ratioP1;P1;durP2;ratioP2;P2;SDS_P1;SDS_P2;PMS_P1;PMS_P2;Temp;Humidity;BMP_temperature;BMP_pressure;BME280_temperature;BME280_humidity;BME280_pressure;Samples;Min_cycle;Max_cycle;Signal;HPM_P1;HPM_P2
2022/03/13 00:00:25;;;;;;;23.65;12.10;;;8.10;99.90;;;;;;5134734;27;20064;-74
2022/03/13 00:02:51;;;;;;;18.55;12.02;;;8.10;99.90;;;;;;5111077;27;20147;-75
2022/03/13 00:05:18;;;;;;;16.95;11.15;;;8.10;99.90;;;;;;5110374;27;20050;-75
2022/03/13 00:07:45;;;;;;;16.10;11.60;;;8.00;99.90;;;;;;5131815;27;20133;-75
2022/03/13 00:10:10;;;;;;;16.67;11.38;;;8.00;99.90;;;;;;5132958;27;20093;-74
2022/03/13 00:12:37;;;;;;;17.65;11.38;;;8.00;99.90;;;;;;5131909;27;20491;-75
2022/03/13 00:15:09;;;;;;;19.77;12.85;;;8.00;99.90;;;;;;5132632;27;20081;-75
2022/03/13 00:17:35;;;;;;;19.70;12.13;;;9.40;99.90;;;;;;5113569;27;20050;-75
2022/03/13 00:20:03;;;;;;;17.48;11.68;;;9.10;99.90;;;;;;5114593;27;20062;-75
2022/03/13 00:22:35;;;;;;;17.08;12.27;;;7.00;99.90;;;;;;5131221;27;20066;-75
2022/03/13 00:25:03;;;;;;;18.65;11.68;;;9.20;99.90;;;;;;5151830;27;20443;-75
2022/03/13 00:27:34;;;;;;;17.67;12.18;;;8.90;99.90;;;;;;5114817;27;20041;-75
2022/03/13 00:30:01;;;;;;;19.10;11.77;;;7.80;99.90;;;;;;5150854;27;20047;-75
2022/03/13 00:32:27;;;;;;;18.95;12.32;;;9.10;99.90;;;;;;5131019;27;20031;-75
2022/03/13 00:34:53;;;;;;;16.48;11.95;;;9.10;99.90;;;;;;5149877;27;20082;-75
2022/03/13 00:37:19;;;;;;;18.10;11.70;;;8.80;99.90;;;;;;5131220;27;20074;-74
2022/03/13 00:39:47;;;;;;;17.83;11.60;;;7.80;99.90;;;;;;5148930;27;20491;-75
2022/03/13 00:42:13;;;;;;;18.65;12.20;;;7.80;99.90;;;;;;5140184;27;20054;-75
2022/03/13 00:44:39;;;;;;;19.65;12.35;;;9.30;99.90;;;;;;5112321;27;20035;-76
2022/03/13 00:47:05;;;;;;;17.70;12.48;;;9.00;99.90;;;;;;5132153;27;20103;-75
2022/03/13 00:49:32;;;;;;;18.92;12.63;;;7.70;99.90;;;;;;5130970;27;20046;-75
2022/03/13 00:51:59;;;;;;;17.75;11.60;;;8.80;99.90;;;;;;5131360;27;20069;-75
2022/03/13 00:54:25;;;;;;;17.98;12.63;;;7.70;99.90;;;;;;5150641;27;20035;-75
2022/03/13 00:56:51;;;;;;;18.38;11.95;;;9.20;99.90;;;;;;5132413;27;20201;-75
2022/03/13 00:59:17;;;;;;;17.23;12.35;;;7.70;99.90;;;;;;5130768;27;20057;-75
2022/03/13 01:01:43;;;;;;;17.88;12.45;;;8.70;99.90;;;;;;5132707;27;20043;-75
2022/03/13 01:04:08;;;;;;;18.50;13.25;;;8.10;99.90;;;;;;5131023;27;20046;-75
2022/03/13 01:06:34;;;;;;;17.55;12.10;;;9.20;99.90;;;;;;5113650;27;20042;-75
2022/03/13 01:09:00;;;;;;;17.20;12.00;;;7.60;99.90;;;;;;5149482;27;20106;-75
2022/03/13 01:11:25;;;;;;;19.20;12.45;;;9.00;99.90;;;;;;5131084;27;20042;-74
2022/03/13 01:13:51;;;;;;;20.23;12.80;;;9.20;99.90;;;;;;5149468;27;20046;-75
2022/03/13 01:16:20;;;;;;;18.38;12.45;;;8.30;99.90;;;;;;5131217;27;20559;-75
2022/03/13 01:18:55;;;;;;;18.73;12.35;;;8.30;99.90;;;;;;5129619;27;20053;-75
2022/03/13 01:21:22;;;;;;;22.23;13.07;;;7.60;99.90;;;;;;5128117;27;20090;-74
2022/03/13 01:23:59;;;;;;;18.33;12.75;;;8.80;99.90;;;;;;5148602;27;20656;-75
2022/03/13 01:26:25;;;;;;;18.38;11.98;;;7.60;99.90;;;;;;5114174;27;20053;-75
2022/03/13 01:28:58;;;;;;;17.63;12.18;;;9.10;99.90;;;;;;5130677;27;20046;-74
2022/03/13 01:31:26;;;;;;;19.27;12.73;;;7.60;99.90;;;;;;5149917;27;20427;-75
2022/03/13 01:33:52;;;;;;;20.25;13.23;;;8.20;99.90;;;;;;5129628;27;20050;-75
2022/03/13 01:36:18;;;;;;;18.65;12.80;;;8.80;99.90;;;;;;5130317;27;20050;-75
2022/03/13 01:38:43;;;;;;;16.17;11.82;;;8.80;99.90;;;;;;5113050;27;20102;-75
2022/03/13 01:41:09;;;;;;;20.52;12.85;;;8.00;99.90;;;;;;5131072;27;20133;-75
2022/03/13 01:43:36;;;;;;;20.45;12.23;;;9.20;99.90;;;;;;5130222;27;20049;-75
2022/03/13 01:46:03;;;;;;;20.52;13.48;;;8.70;99.90;;;;;;5131640;27;20445;-75
2022/03/13 01:48:30;;;;;;;18.23;12.98;;;8.00;99.90;;;;;;5129238;27;20494;-75
2022/03/13 01:50:56;;;;;;;20.27;12.20;;;9.10;99.90;;;;;;5130690;27;20399;-74
2022/03/13 01:53:23;;;;;;;20.33;13.10;;;9.10;99.90;;;;;;5149292;27;20057;-75
2022/03/13 01:55:49;;;;;;;21.67;12.73;;;7.50;99.90;;;;;;5149342;27;20082;-75
2022/03/13 01:58:15;;;;;;;17.80;12.63;;;7.60;99.90;;;;;;5148123;27;20079;-75
2022/03/13 02:00:41;;;;;;;18.30;12.75;;;7.30;99.90;;;;;;5148777;27;20054;-75
2022/03/13 02:03:07;;;;;;;18.80;12.02;;;7.60;99.90;;;;;;5131895;27;20035;-75
2022/03/13 02:05:35;;;;;;;18.98;12.68;;;8.70;99.90;;;;;;5143538;27;20116;-75
2022/03/13 02:08:11;;;;;;;19.75;13.40;;;7.60;99.90;;;;;;5131354;27;20054;-75
2022/03/13 02:10:37;;;;;;;20.55;13.02;;;7.70;99.90;;;;;;5151076;27;20436;-74
2022/03/13 02:13:03;;;;;;;15.27;11.10;;;7.60;99.90;;;;;;5132047;27;20073;-74
2022/03/13 02:15:31;;;;;;;18.85;12.65;;;8.60;99.90;;;;;;5151304;27;20410;-74
2022/03/13 02:17:58;;;;;;;19.08;12.95;;;8.20;99.90;;;;;;5148346;27;20046;-74
2022/03/13 02:20:26;;;;;;;20.95;12.68;;;7.90;99.90;;;;;;5131236;27;20451;-73
2022/03/13 02:22:58;;;;;;;18.77;12.77;;;9.00;99.90;;;;;;5152263;27;20083;-73
2022/03/13 02:25:25;;;;;;;20.33;13.23;;;7.70;99.90;;;;;;5112757;27;20382;-75
2022/03/13 02:27:51;;;;;;;18.98;12.93;;;8.70;99.90;;;;;;5113108;27;20038;-74
2022/03/13 02:30:23;;;;;;;19.98;13.00;;;7.70;99.90;;;;;;5148939;27;20035;-73
2022/03/13 02:32:48;;;;;;;18.48;13.07;;;7.70;99.90;;;;;;5138322;27;20117;-76
2022/03/13 02:35:17;;;;;;;18.20;12.43;;;7.70;99.90;;;;;;5119644;27;20069;-76
2022/03/13 02:37:43;;;;;;;24.85;13.10;;;7.70;99.90;;;;;;5135796;27;20034;-76
2022/03/13 02:40:17;;;;;;;19.77;13.38;;;8.70;99.90;;;;;;5120545;27;20043;-76
2022/03/13 02:42:43;;;;;;;19.17;13.82;;;7.60;99.90;;;;;;5140816;27;20042;-76
2022/03/13 02:45:09;;;;;;;19.17;12.63;;;7.60;99.90;;;;;;5106379;27;20038;-76
2022/03/13 02:47:35;;;;;;;18.88;12.85;;;7.70;99.90;;;;;;5121308;27;20046;-77
2022/03/13 02:50:01;;;;;;;20.15;13.52;;;7.70;99.90;;;;;;5123008;27;20099;-75
2022/03/13 02:52:28;;;;;;;17.83;12.95;;;7.60;99.90;;;;;;5126338;27;20083;-76
2022/03/13 02:54:53;;;;;;;19.33;13.43;;;7.70;99.90;;;;;;5104362;27;20045;-75
2022/03/13 02:57:19;;;;;;;20.27;13.20;;;7.60;99.90;;;;;;5142796;27;20038;-76
2022/03/13 02:59:44;;;;;;;18.42;12.82;;;8.20;99.90;;;;;;5122506;27;20042;-76
2022/03/13 03:02:10;;;;;;;20.52;13.77;;;8.40;99.90;;;;;;5111214;27;20053;-74
2022/03/13 03:04:36;;;;;;;23.05;13.75;;;7.50;99.90;;;;;;5120824;27;20092;-75
2022/03/13 03:07:04;;;;;;;21.30;13.82;;;7.40;99.90;;;;;;5107192;27;20031;-75
2022/03/13 03:09:31;;;;;;;20.65;14.05;;;7.50;99.90;;;;;;5141273;27;20053;-75
2022/03/13 03:12:04;;;;;;;18.90;12.88;;;7.40;99.90;;;;;;5125731;27;20087;-74
2022/03/13 03:14:31;;;;;;;20.42;13.65;;;7.40;99.90;;;;;;5133902;27;20397;-75
2022/03/13 03:16:58;;;;;;;20.25;14.13;;;7.40;99.90;;;;;;5132508;27;20118;-75
2022/03/13 03:19:26;;;;;;;21.15;14.20;;;7.40;99.90;;;;;;5151546;27;20099;-76
2022/03/13 03:21:52;;;;;;;18.60;13.93;;;7.30;99.90;;;;;;5128480;27;20506;-75
2022/03/13 03:24:21;;;;;;;21.65;13.98;;;7.30;99.90;;;;;;5124624;27;20491;-74
2022/03/13 03:26:47;;;;;;;19.88;14.50;;;8.60;99.90;;;;;;5124622;27;20677;-74
2022/03/13 03:29:14;;;;;;;19.23;13.98;;;7.30;99.90;;;;;;5122770;27;20118;-74
2022/03/13 03:31:44;;;;;;;22.50;14.73;;;8.40;99.90;;;;;;5123011;27;20043;-74
2022/03/13 03:34:13;;;;;;;21.60;14.73;;;7.30;99.90;;;;;;5122300;27;20049;-75
2022/03/13 03:36:41;;;;;;;21.00;13.95;;;7.80;99.90;;;;;;5122008;27;20035;-76
2022/03/13 03:39:08;;;;;;;19.88;14.15;;;7.20;99.90;;;;;;5122066;27;20050;-74
2022/03/13 03:41:34;;;;;;;20.90;14.73;;;7.20;99.90;;;;;;5141139;27;20053;-76
2022/03/13 03:44:00;;;;;;;21.42;14.45;;;7.20;99.90;;;;;;5140359;27;20118;-75
2022/03/13 03:46:25;;;;;;;19.50;14.57;;;7.20;99.90;;;;;;5123778;27;20058;-74
2022/03/13 03:48:51;;;;;;;21.83;14.15;;;7.10;99.90;;;;;;5120549;27;20502;-74
2022/03/13 03:51:17;;;;;;;23.25;14.93;;;7.10;99.90;;;;;;5124355;27;20043;-74
2022/03/13 03:53:42;;;;;;;20.45;14.35;;;7.10;99.90;;;;;;5104442;27;20170;-74
2022/03/13 03:56:08;;;;;;;20.13;14.80;;;7.10;99.90;;;;;;5125579;27;20042;-74
2022/03/13 03:58:34;;;;;;;20.13;13.73;;;7.10;99.90;;;;;;5118623;27;20134;-74
2022/03/13 04:00:59;;;;;;;20.25;14.85;;;7.10;99.90;;;;;;5142193;27;20505;-75
2022/03/13 04:03:25;;;;;;;21.45;15.05;;;7.00;99.90;;;;;;5142265;27;20039;-75
2022/03/13 04:05:52;;;;;;;20.92;14.93;;;7.00;99.90;;;;;;5143700;27;20106;-74
2022/03/13 04:08:18;;;;;;;23.45;15.13;;;6.90;99.90;;;;;;5152761;27;20130;-78
2022/03/13 04:10:43;;;;;;;20.60;14.50;;;6.90;99.90;;;;;;5150034;27;20408;-77
2022/03/13 04:13:09;;;;;;;21.98;15.13;;;6.80;99.90;;;;;;5151729;27;20046;-77
2022/03/13 04:15:35;;;;;;;20.05;14.30;;;8.10;99.90;;;;;;5150425;27;20045;-78
2022/03/13 04:18:00;;;;;;;21.60;14.40;;;6.80;99.90;;;;;;5149419;27;20602;-78
2022/03/13 04:20:26;;;;;;;22.50;14.82;;;8.00;99.90;;;;;;5132456;27;20134;-78
2022/03/13 04:22:52;;;;;;;22.67;14.63;;;8.10;99.90;;;;;;5150139;27;20054;-78
2022/03/13 04:25:18;;;;;;;22.33;14.50;;;6.70;99.90;;;;;;5132158;27;20042;-77
2022/03/13 04:27:44;;;;;;;20.38;13.90;;;6.70;99.90;;;;;;5150074;27;20134;-73
2022/03/13 04:30:10;;;;;;;20.42;14.82;;;7.20;99.90;;;;;;5151590;27;20050;-74
2022/03/13 04:32:36;;;;;;;21.13;14.98;;;6.60;99.90;;;;;;5129632;27;20051;-74
2022/03/13 04:35:01;;;;;;;20.77;13.43;;;6.60;99.90;;;;;;5151353;27;20377;-74
2022/03/13 04:37:27;;;;;;;30.80;14.23;;;6.70;99.90;;;;;;5131540;27;20045;-73
2022/03/13 04:39:53;;;;;;;19.02;13.52;;;6.60;99.90;;;;;;5130868;27;20459;-74
2022/03/13 04:42:19;;;;;;;20.55;14.52;;;6.60;99.90;;;;;;5124389;27;20031;-74
2022/03/13 04:44:45;;;;;;;20.65;13.93;;;6.60;99.90;;;;;;5132056;27;20035;-74
2022/03/13 04:47:11;;;;;;;20.77;13.90;;;6.60;99.90;;;;;;5150659;27;20178;-74
2022/03/13 04:49:37;;;;;;;19.58;14.32;;;6.60;99.90;;;;;;5135508;27;20542;-74
2022/03/13 04:52:02;;;;;;;19.80;13.48;;;6.60;99.90;;;;;;5115665;27;20038;-74
2022/03/13 04:54:28;;;;;;;20.83;14.40;;;6.60;99.90;;;;;;5114389;27;20038;-74
2022/03/13 04:56:54;;;;;;;19.98;13.43;;;6.60;99.90;;;;;;5114596;27;20038;-74
2022/03/13 04:59:20;;;;;;;20.58;13.60;;;7.50;99.90;;;;;;5149648;27;20058;-74
2022/03/13 05:01:45;;;;;;;19.75;14.30;;;6.60;99.90;;;;;;5130736;27;20035;-74
2022/03/13 05:04:11;;;;;;;20.83;14.10;;;6.60;99.90;;;;;;5129869;27;20079;-74
2022/03/13 05:06:38;;;;;;;21.95;14.88;;;6.60;99.90;;;;;;5149822;27;20038;-75
2022/03/13 05:09:07;;;;;;;20.88;14.05;;;6.60;99.90;;;;;;5130729;27;20047;-74
2022/03/13 05:11:33;;;;;;;18.80;13.60;;;6.60;99.90;;;;;;5131121;27;20039;-74
2022/03/13 05:13:58;;;;;;;21.90;15.15;;;6.60;99.90;;;;;;5114245;27;20417;-74
2022/03/13 05:16:24;;;;;;;19.95;14.27;;;6.60;99.90;;;;;;5150193;27;20058;-74
2022/03/13 05:18:50;;;;;;;23.75;14.85;;;7.70;99.90;;;;;;5129870;27;20138;-75
2022/03/13 05:21:17;;;;;;;21.40;14.77;;;7.90;99.90;;;;;;5145542;27;20535;-74
2022/03/13 05:23:43;;;;;;;20.35;13.20;;;6.40;99.90;;;;;;5148983;27;20055;-74
2022/03/13 05:26:08;;;;;;;22.90;13.98;;;7.10;99.90;;;;;;5132064;27;20107;-75
2022/03/13 05:28:35;;;;;;;22.33;14.52;;;7.30;99.90;;;;;;5129539;27;20039;-74
2022/03/13 05:31:01;;;;;;;22.42;13.35;;;6.30;99.90;;;;;;5131660;27;20072;-75
2022/03/13 05:33:27;;;;;;;19.20;13.43;;;6.30;99.90;;;;;;5129769;27;20042;-74
2022/03/13 05:35:53;;;;;;;20.73;14.02;;;6.30;99.90;;;;;;5148901;27;20455;-75
2022/03/13 05:38:19;;;;;;;19.67;13.38;;;6.20;99.90;;;;;;5131205;27;20047;-75
2022/03/13 05:40:45;;;;;;;21.77;14.13;;;6.20;99.90;;;;;;5130706;27;20051;-75
2022/03/13 05:43:11;;;;;;;22.02;12.95;;;7.20;99.90;;;;;;5130483;27;20046;-75
2022/03/13 05:45:39;;;;;;;20.98;14.05;;;6.40;99.90;;;;;;5149136;27;20462;-75
2022/03/13 05:48:10;;;;;;;22.10;13.48;;;7.80;99.90;;;;;;5148823;27;20074;-75
2022/03/13 05:50:36;;;;;;;19.13;13.07;;;6.40;99.90;;;;;;5129982;27;20095;-75
2022/03/13 05:53:02;;;;;;;18.08;12.50;;;6.40;99.90;;;;;;5130702;27;20066;-76
2022/03/13 05:55:28;;;;;;;28.38;13.50;;;7.40;99.90;;;;;;5131272;27;20046;-75
2022/03/13 05:57:55;;;;;;;19.77;12.93;;;6.40;99.90;;;;;;5129449;27;20051;-75
2022/03/13 06:00:23;;;;;;;18.02;12.38;;;6.40;99.90;;;;;;5149914;27;20050;-75
2022/03/13 06:02:49;;;;;;;19.35;12.63;;;6.40;99.90;;;;;;5129431;27;20192;-75
2022/03/13 06:05:17;;;;;;;19.17;12.07;;;6.40;99.90;;;;;;5126959;28;20046;-75
2022/03/13 06:07:43;;;;;;;20.83;12.70;;;6.40;99.90;;;;;;5121480;28;20050;-75
2022/03/13 06:10:09;;;;;;;17.17;12.13;;;6.50;99.90;;;;;;5129470;28;20051;-75
2022/03/13 06:12:36;;;;;;;18.38;11.70;;;6.50;99.90;;;;;;5128569;27;20053;-75
2022/03/13 06:15:04;;;;;;;17.67;12.10;;;7.90;99.90;;;;;;5150773;27;20061;-75
2022/03/13 06:17:30;;;;;;;16.58;11.80;;;6.60;99.90;;;;;;5132466;27;20406;-75
2022/03/13 06:19:56;;;;;;;16.42;11.70;;;6.50;99.90;;;;;;5134999;27;20045;-75
2022/03/13 06:22:23;;;;;;;21.52;13.20;;;6.50;99.90;;;;;;5152925;27;20450;-75
2022/03/13 06:24:49;;;;;;;17.67;12.43;;;6.50;99.90;;;;;;5135121;27;20081;-75
2022/03/13 06:27:15;;;;;;;19.08;12.55;;;7.60;99.90;;;;;;5134598;27;20455;-75
2022/03/13 06:29:41;;;;;;;18.20;11.73;;;6.50;99.90;;;;;;5134585;27;20054;-75
2022/03/13 06:32:07;;;;;;;19.77;13.10;;;6.50;99.90;;;;;;5133137;27;20479;-75
2022/03/13 06:34:34;;;;;;;18.15;12.70;;;6.50;99.90;;;;;;5152350;27;20043;-75
2022/03/13 06:37:00;;;;;;;17.63;11.98;;;6.50;99.90;;;;;;5133798;27;20051;-75
2022/03/13 06:39:25;;;;;;;16.70;11.98;;;7.40;99.90;;;;;;5133816;27;20043;-75
2022/03/13 06:41:52;;;;;;;17.88;11.25;;;6.50;99.90;;;;;;5145090;27;20096;-75
2022/03/13 06:44:20;;;;;;;18.17;12.48;;;6.50;99.90;;;;;;5120550;27;20045;-75
2022/03/13 06:46:46;;;;;;;18.85;12.07;;;7.80;99.90;;;;;;5121237;27;20039;-74
2022/03/13 06:49:11;;;;;;;21.85;11.90;;;6.50;99.90;;;;;;5135741;27;20178;-75
2022/03/13 06:51:40;;;;;;;17.17;12.48;;;6.50;99.90;;;;;;5116194;27;20122;-75
2022/03/13 06:54:07;;;;;;;18.85;13.10;;;6.50;99.90;;;;;;5151701;27;20125;-75
2022/03/13 06:56:35;;;;;;;17.15;12.43;;;6.50;99.90;;;;;;5152288;27;20477;-75
2022/03/13 06:59:03;;;;;;;18.27;12.90;;;6.40;99.90;;;;;;5151444;27;20148;-74
2022/03/13 07:01:30;;;;;;;18.65;12.80;;;7.40;99.90;;;;;;5133975;27;20074;-75
2022/03/13 07:03:56;;;;;;;16.67;12.27;;;6.40;99.90;;;;;;5130748;27;20485;-75
2022/03/13 07:06:22;;;;;;;18.35;11.88;;;6.40;99.90;;;;;;5139588;27;20104;-74
2022/03/13 07:08:47;;;;;;;17.17;11.80;;;6.80;99.90;;;;;;5132178;27;20061;-74
2022/03/13 07:11:15;;;;;;;18.17;10.68;;;6.40;99.90;;;;;;5133183;27;20042;-74
2022/03/13 07:13:44;;;;;;;18.10;12.00;;;6.50;99.90;;;;;;5125714;27;20053;-75
2022/03/13 07:16:10;;;;;;;19.35;12.43;;;6.50;99.90;;;;;;5141365;27;20494;-74
2022/03/13 07:18:36;;;;;;;18.27;12.55;;;6.60;99.90;;;;;;5122033;27;20047;-74
2022/03/13 07:21:02;;;;;;;17.25;11.55;;;6.50;99.90;;;;;;5139964;27;20031;-74
2022/03/13 07:23:28;;;;;;;19.17;12.25;;;6.50;99.90;;;;;;5143396;27;20133;-74
2022/03/13 07:25:54;;;;;;;18.17;12.20;;;7.40;99.90;;;;;;5142870;27;20035;-74
2022/03/13 07:28:20;;;;;;;17.10;11.48;;;7.30;99.90;;;;;;5139293;27;20057;-74
2022/03/13 07:30:46;;;;;;;17.75;11.93;;;6.60;99.90;;;;;;5105568;27;20423;-74
2022/03/13 07:33:12;;;;;;;18.20;11.98;;;6.60;99.90;;;;;;5122522;27;20043;-74
2022/03/13 07:35:38;;;;;;;18.13;12.20;;;6.70;99.90;;;;;;5122615;27;20027;-74
2022/03/13 07:38:05;;;;;;;17.45;11.57;;;6.80;99.90;;;;;;5120587;27;20080;-74
2022/03/13 07:40:31;;;;;;;19.15;12.25;;;6.80;99.90;;;;;;5140737;27;20058;-74
2022/03/13 07:42:57;;;;;;;18.90;12.07;;;7.90;99.90;;;;;;5142021;27;20042;-74
2022/03/13 07:45:24;;;;;;;24.02;12.98;;;6.90;99.90;;;;;;5120297;27;20095;-74
2022/03/13 07:47:50;;;;;;;18.02;11.55;;;6.90;99.90;;;;;;5123739;27;20058;-74
2022/03/13 07:50:16;;;;;;;17.75;11.73;;;6.90;99.90;;;;;;5121851;27;20118;-74
2022/03/13 07:52:42;;;;;;;18.25;11.85;;;8.10;99.90;;;;;;5121697;27;20064;-74
2022/03/13 07:55:08;;;;;;;17.45;11.25;;;7.10;99.90;;;;;;5143672;27;20516;-75
2022/03/13 07:57:34;;;;;;;18.75;11.30;;;7.30;99.90;;;;;;5121338;27;20414;-74
2022/03/13 08:00:00;;;;;;;17.13;11.20;;;7.50;99.90;;;;;;5139904;27;20054;-74
2022/03/13 08:02:26;;;;;;;17.23;10.70;;;7.60;99.90;;;;;;5122852;27;20523;-74
2022/03/13 08:04:52;;;;;;;16.10;11.55;;;8.80;99.90;;;;;;5131740;27;20053;-74
2022/03/13 08:07:17;;;;;;;17.00;11.07;;;7.80;99.90;;;;;;5115903;27;20042;-74
2022/03/13 08:09:43;;;;;;;17.20;11.23;;;7.90;99.90;;;;;;5150708;27;20056;-76
2022/03/13 08:12:09;;;;;;;16.00;11.18;;;8.00;99.90;;;;;;5132332;27;20043;-74
2022/03/13 08:14:35;;;;;;;16.55;11.05;;;8.00;99.90;;;;;;5151104;27;20129;-74
2022/03/13 08:17:00;;;;;;;15.65;11.07;;;8.20;99.90;;;;;;5133322;27;20082;-74
2022/03/13 08:19:26;;;;;;;16.70;11.32;;;9.90;99.90;;;;;;5127506;27;20050;-74
2022/03/13 08:21:52;;;;;;;19.50;11.35;;;8.60;99.90;;;;;;5111265;27;20034;-73
2022/03/13 08:24:18;;;;;;;20.02;11.20;;;8.90;99.90;;;;;;5128046;27;20054;-74
2022/03/13 08:26:44;;;;;;;16.90;10.18;;;10.80;99.90;;;;;;5147902;27;20045;-74
2022/03/13 08:29:11;;;;;;;15.02;10.20;;;10.10;99.80;;;;;;5128587;27;20483;-75
2022/03/13 08:31:37;;;;;;;15.15;10.45;;;10.20;99.70;;;;;;5146348;27;20476;-74
2022/03/13 08:34:07;;;;;;;15.52;10.88;;;10.60;99.40;;;;;;5146323;27;20071;-74
2022/03/13 08:36:49;;;;;;;15.82;10.60;;;11.40;99.50;;;;;;5146906;27;20047;-74
2022/03/13 08:39:15;;;;;;;16.50;10.73;;;10.80;99.10;;;;;;5126962;27;20069;-74
2022/03/13 08:41:41;;;;;;;14.00;9.93;;;10.60;98.80;;;;;;5127453;27;20047;-74
2022/03/13 08:44:08;;;;;;;15.07;10.38;;;10.40;98.20;;;;;;5149904;27;20042;-74
2022/03/13 08:46:34;;;;;;;17.42;10.90;;;10.50;98.30;;;;;;5149923;27;20118;-74
2022/03/13 08:48:59;;;;;;;16.08;10.48;;;11.20;97.90;;;;;;5148919;27;20056;-74
2022/03/13 08:51:27;;;;;;;14.57;10.68;;;12.20;98.10;;;;;;5115164;27;20039;-74
2022/03/13 08:53:53;;;;;;;17.20;10.75;;;12.90;97.10;;;;;;5130278;27;20443;-74
2022/03/13 08:56:20;;;;;;;13.95;10.30;;;13.40;95.40;;;;;;5132594;27;20372;-74
2022/03/13 08:58:46;;;;;;;18.88;10.43;;;15.30;94.60;;;;;;5130282;27;20390;-75
2022/03/13 09:01:12;;;;;;;14.38;10.27;;;16.70;92.20;;;;;;5117546;27;20089;-75
2022/03/13 09:03:37;;;;;;;14.98;10.32;;;17.90;90.10;;;;;;5131436;27;20070;-75
2022/03/13 09:06:04;;;;;;;13.27;10.00;;;18.70;86.60;;;;;;5112976;27;20039;-75
2022/03/13 09:08:29;;;;;;;16.92;10.57;;;19.50;83.70;;;;;;5127400;27;20043;-75
2022/03/13 09:10:55;;;;;;;12.48;9.50;;;19.40;81.00;;;;;;5115200;27;20172;-74
2022/03/13 09:13:21;;;;;;;14.10;10.18;;;19.30;79.20;;;;;;5137315;27;20043;-74
2022/03/13 09:15:48;;;;;;;16.27;10.02;;;18.70;77.10;;;;;;5110730;27;20084;-74
2022/03/13 09:18:13;;;;;;;16.13;10.20;;;18.90;76.20;;;;;;5127355;27;20065;-74
2022/03/13 09:20:40;;;;;;;13.05;10.10;;;18.80;76.20;;;;;;5126767;27;20038;-74
2022/03/13 09:23:08;;;;;;;15.38;9.82;;;19.60;76.30;;;;;;5131003;27;20375;-73
2022/03/13 09:25:35;;;;;;;13.60;10.18;;;20.10;73.40;;;;;;5148969;27;20451;-73
2022/03/13 09:28:02;;;;;;;13.32;9.82;;;21.20;71.40;;;;;;5128032;27;20054;-73
2022/03/13 09:30:27;;;;;;;14.00;10.65;;;22.30;69.00;;;;;;5107702;27;20039;-75
2022/03/13 09:32:53;;;;;;;14.52;9.90;;;23.20;66.50;;;;;;5108099;27;20047;-75
2022/03/13 09:35:19;;;;;;;15.13;10.13;;;24.00;64.00;;;;;;5127101;27;20096;-76
2022/03/13 09:37:46;;;;;;;14.73;10.15;;;24.90;62.10;;;;;;5144297;27;20058;-76
2022/03/13 09:40:14;;;;;;;14.50;9.52;;;25.50;59.40;;;;;;5126374;27;20046;-77
2022/03/13 09:42:41;;;;;;;13.15;10.13;;;25.80;56.40;;;;;;5125804;27;20133;-78
2022/03/13 09:45:07;;;;;;;12.48;9.52;;;26.20;54.40;;;;;;5127054;27;20415;-76
2022/03/13 09:47:33;;;;;;;11.80;9.38;;;26.50;52.70;;;;;;5107784;27;20046;-76
2022/03/13 09:49:58;;;;;;;14.07;9.77;;;26.70;52.80;;;;;;5125752;27;20529;-77
2022/03/13 09:52:24;;;;;;;11.93;9.10;;;27.00;52.10;;;;;;5143592;27;20070;-78
2022/03/13 09:54:50;;;;;;;12.18;10.38;;;27.40;51.80;;;;;;5125856;27;20042;-77
2022/03/13 09:57:17;;;;;;;13.57;9.68;;;28.20;50.20;;;;;;5143149;27;20042;-77
2022/03/13 09:59:45;;;;;;;12.68;9.43;;;28.70;48.10;;;;;;5145221;27;20043;-77
2022/03/13 10:02:11;;;;;;;12.13;9.48;;;29.10;47.10;;;;;;5126168;27;20133;-77
2022/03/13 10:04:37;;;;;;;14.77;9.45;;;29.50;46.60;;;;;;5143867;27;20157;-78
2022/03/13 10:07:04;;;;;;;12.68;9.43;;;29.70;47.00;;;;;;5126240;27;20034;-77
2022/03/13 10:09:31;;;;;;;12.77;9.32;;;30.40;45.50;;;;;;5125292;27;20054;-77
2022/03/13 10:12:23;;;;;;;13.90;9.32;;;30.40;45.40;;;;;;5127196;27;20093;-77
2022/03/13 10:15:07;;;;;;;15.68;9.73;;;31.10;43.70;;;;;;5104540;27;20187;-77
2022/03/13 10:17:37;;;;;;;11.65;9.15;;;30.90;43.10;;;;;;5143641;27;20046;-74
2022/03/13 10:20:27;;;;;;;11.55;9.40;;;31.30;43.30;;;;;;5131157;27;20047;-73
2022/03/13 10:22:59;;;;;;;11.27;9.32;;;31.20;43.10;;;;;;5147392;27;20395;-74
2022/03/13 10:25:31;;;;;;;10.80;9.10;;;31.40;41.70;;;;;;5142998;27;20084;-74
2022/03/13 10:28:17;;;;;;;13.30;9.65;;;31.70;40.90;;;;;;5138316;27;20522;-73
2022/03/13 10:30:46;;;;;;;11.38;9.82;;;31.80;40.70;;;;;;5117413;27;20039;-72
2022/03/13 10:33:11;;;;;;;11.80;9.02;;;31.90;40.20;;;;;;5118170;27;20479;-72
2022/03/13 10:35:38;;;;;;;13.88;9.40;;;32.20;40.50;;;;;;5118969;27;20483;-72
2022/03/13 10:38:16;;;;;;;13.52;9.32;;;32.50;39.70;;;;;;5118194;27;20106;-72
2022/03/13 10:40:41;;;;;;;11.88;9.20;;;32.20;39.20;;;;;;5136467;27;20108;-73
2022/03/13 10:43:08;;;;;;;13.93;9.35;;;32.40;39.30;;;;;;5136902;27;20035;-73
2022/03/13 10:45:39;;;;;;;12.95;9.90;;;32.80;39.30;;;;;;5137931;27;20398;-73
2022/03/13 10:48:16;;;;;;;12.27;9.07;;;33.00;39.00;;;;;;5138219;27;20034;-73
2022/03/13 10:50:45;;;;;;;11.43;8.88;;;33.10;38.50;;;;;;5117382;27;20145;-74
2022/03/13 10:53:14;;;;;;;11.27;8.85;;;34.00;39.10;;;;;;5117861;27;20038;-74
2022/03/13 10:55:41;;;;;;;12.85;9.45;;;35.00;37.80;;;;;;5100938;27;20082;-74
2022/03/13 10:58:07;;;;;;;12.57;9.45;;;34.60;36.90;;;;;;5117975;27;20043;-74
2022/03/13 11:00:36;;;;;;;12.23;9.07;;;34.20;37.10;;;;;;5138015;27;20035;-73
2022/03/13 11:03:14;;;;;;;11.88;9.35;;;33.40;37.00;;;;;;5121141;27;20070;-73
2022/03/13 11:05:40;;;;;;;10.35;9.15;;;33.20;37.30;;;;;;5138732;27;20136;-72
2022/03/13 11:08:08;;;;;;;12.02;9.32;;;33.50;37.30;;;;;;5140372;27;20099;-72
2022/03/13 11:10:37;;;;;;;12.93;10.05;;;33.50;36.90;;;;;;5143921;27;20393;-73
2022/03/13 11:13:06;;;;;;;11.13;9.30;;;33.70;37.20;;;;;;5139432;27;20035;-73
2022/03/13 11:15:35;;;;;;;10.93;9.43;;;34.60;37.30;;;;;;5140155;27;20068;-72
2022/03/13 11:18:04;;;;;;;12.90;10.00;;;35.10;36.20;;;;;;5119270;27;20345;-72
2022/03/13 11:20:31;;;;;;;10.10;8.68;;;34.60;35.90;;;;;;5121511;27;20130;-73
2022/03/13 11:22:56;;;;;;;12.32;9.38;;;35.20;36.70;;;;;;5121745;27;20039;-73
2022/03/13 11:25:23;;;;;;;11.65;9.32;;;35.90;36.40;;;;;;5124387;27;20130;-73
2022/03/13 11:27:51;;;;;;;13.52;9.27;;;36.50;35.60;;;;;;5141565;27;20142;-73
2022/03/13 11:30:30;;;;;;;12.85;9.30;;;36.50;35.80;;;;;;5142444;27;20039;-73
2022/03/13 11:32:57;;;;;;;11.48;9.23;;;36.90;35.60;;;;;;5122668;27;20039;-74
2022/03/13 11:35:25;;;;;;;11.73;9.02;;;37.60;35.30;;;;;;5141154;27;20118;-73
2022/03/13 11:38:00;;;;;;;10.40;8.50;;;37.20;35.10;;;;;;5121084;27;20082;-73
2022/03/13 11:40:34;;;;;;;;;;;37.40;35.10;;;;;;5121117;27;20055;-74
2022/03/13 11:43:09;;;;;;;9.35;8.23;;;37.10;35.00;;;;;;5141358;27;20311;-73
2022/03/13 11:45:39;;;;;;;9.68;8.60;;;37.00;34.60;;;;;;5124496;27;20112;-73
2022/03/13 11:48:05;;;;;;;9.88;8.88;;;36.50;34.50;;;;;;5119711;27;20367;-73
2022/03/13 11:50:58;;;;;;;12.68;8.55;;;36.60;34.10;;;;;;5124070;27;20043;-73
2022/03/13 11:53:29;;;;;;;10.60;8.43;;;36.60;34.30;;;;;;5137541;27;20047;-72
2022/03/13 11:55:58;;;;;;;10.05;8.82;;;36.50;35.00;;;;;;5123427;27;20082;-73
2022/03/13 11:58:52;;;;;;;10.85;9.02;;;36.10;34.40;;;;;;5126738;27;20058;-73
2022/03/13 12:01:20;;;;;;;10.53;8.53;;;36.20;34.00;;;;;;5151277;27;20433;-72
2022/03/13 12:04:04;;;;;;;11.85;8.57;;;35.90;34.10;;;;;;5128220;27;20050;-72
2022/03/13 12:06:44;;;;;;;10.35;8.75;;;36.30;34.60;;;;;;5123265;27;20094;-72
2022/03/13 12:09:14;;;;;;;12.13;8.20;;;36.30;33.60;;;;;;5124923;27;20171;-72
2022/03/13 12:11:50;;;;;;;10.85;8.55;;;35.40;34.00;;;;;;5131071;27;20043;-72
2022/03/13 12:14:18;;;;;;;10.63;8.27;;;34.90;33.80;;;;;;5147719;27;20371;-71
2022/03/13 12:16:46;;;;;;;11.27;8.38;;;34.30;34.40;;;;;;5110848;27;20053;-72
2022/03/13 12:19:15;;;;;;;12.32;8.77;;;34.30;34.50;;;;;;5144325;27;20126;-73
2022/03/13 12:21:47;;;;;;;9.55;8.18;;;34.40;34.10;;;;;;5149419;27;20142;-71
2022/03/13 12:24:18;;;;;;;11.77;8.88;;;33.80;33.90;;;;;;5132240;27;20390;-70
2022/03/13 12:26:45;;;;;;;10.77;8.68;;;32.90;34.10;;;;;;5150490;27;20421;-71
2022/03/13 12:29:17;;;;;;;10.73;8.75;;;32.20;34.60;;;;;;5149466;27;20049;-71
2022/03/13 12:31:48;;;;;;;10.05;8.77;;;30.90;35.00;;;;;;5140912;27;20072;-71
2022/03/13 12:34:36;;;;;;;10.77;8.68;;;29.20;36.30;;;;;;5120538;27;20050;-71
2022/03/13 12:37:09;;;;;;;11.05;9.02;;;27.60;37.40;;;;;;5126170;27;20038;-74